Stations météo

réclame
Mon MeteoGroup
Arcen aws, Pays-Bas (6391): Température de l'air & dewpoint: 15.01.2019 17:00:00 - 21.01.2019 17:00:00 (CET)Arcen aws, Pays-Bas (6391): Température de l'air 5cm: 15.01.2019 17:00:00 - 21.01.2019 17:00:00 (CET)Arcen aws, Pays-Bas (6391): Vitesse du vent & gusts: 15.01.2019 17:00:00 - 21.01.2019 17:00:00 (CET)Arcen aws, Pays-Bas (6391): Direction du vent: 15.01.2019 17:00:00 - 21.01.2019 17:00:00 (CET)Arcen aws, Pays-Bas (6391): Quantités de précipitations: 15.01.2019 17:00:00 - 21.01.2019 17:00:00 (CET)
Date & Time tt [°C] td [°C] tt 5cm [°C] ff [km/h] ff [knt] fx [km/h] fx [knt] dd rr [mm]
21.01.2019 17:00:00 -0,4 -4,2 -2,5 4 2 11 6 SSW -
21.01.2019 16:00:00 1,6 -5,0 -0,2 7 4 11 6 WSW 0,0
21.01.2019 15:00:00 1,5 -4,7 0,4 7 4 14 8 SSW 0,0
21.01.2019 14:00:00 0,9 -4,8 -0,2 7 4 11 6 SSW 0,0
21.01.2019 13:00:00 -0,2 -3,8 -1,1 7 4 11 6 SSW 0,0
21.01.2019 12:00:00 -1,7 -4,1 -2,5 4 2 11 6 SW 0,0
21.01.2019 11:00:00 -2,6 -4,4 -2,6 4 2 11 6 S 0,0
21.01.2019 10:00:00 -5,3 -6,5 -5,2 7 4 7 4 SSE 0,0
21.01.2019 09:00:00 -9,2 -10,3 -9,5 0 0 4 2 N 0,0
21.01.2019 08:00:00 -9,0 -10,2 -9,4 0 0 4 2 N 0,0
21.01.2019 07:00:00 -8,8 -9,5 -9,2 0 0 4 2 N 0,0
21.01.2019 06:00:00 -8,7 -9,8 -9,2 0 0 4 2 N 0,0
21.01.2019 05:00:00 -8,2 -8,9 -8,6 4 2 7 4 N 0,0
21.01.2019 04:00:00 -7,7 -8,8 -8,5 4 2 4 2 S 0,0
21.01.2019 03:00:00 -7,5 -8,6 -8,4 0 0 4 2 N 0,0
21.01.2019 02:00:00 -7,0 -7,9 -8,3 4 2 4 2 NNW 0,0
21.01.2019 01:00:00 -7,2 -8,2 -8,2 0 0 4 2 N 0,0
21.01.2019 00:00:00 -6,7 -7,6 -7,6 4 2 4 2 N 0,0
20.01.2019 23:00:00 -6,0 -7,0 -7,0 0 0 4 2 N 0,0
20.01.2019 22:00:00 -6,0 -6,6 -7,1 4 2 7 4 N 0,0
20.01.2019 21:00:00 -5,5 -6,3 -6,5 4 2 7 4 NNW 0,0
20.01.2019 20:00:00 -4,3 -5,2 -6,3 4 2 7 4 NNW 0,0
20.01.2019 19:00:00 -3,9 -4,9 -5,4 4 2 7 4 N 0,0
20.01.2019 18:00:00 -1,9 -5,0 -3,8 4 2 7 4 N 0,0
20.01.2019 17:00:00 -0,2 -4,7 -1,4 7 4 14 8 N 0,0
20.01.2019 16:00:00 1,2 -5,1 0,2 7 4 14 8 NE 0,0
20.01.2019 15:00:00 1,5 -5,2 0,8 7 4 14 8 NE 0,0
20.01.2019 14:00:00 1,2 -5,6 0,8 7 4 11 6 ENE 0,0
20.01.2019 13:00:00 0,6 -5,7 0,0 7 4 11 6 ESE 0,0
20.01.2019 12:00:00 -0,2 -5,8 -0,8 7 4 14 8 ESE 0,0
20.01.2019 11:00:00 -0,6 -5,7 -0,5 7 4 11 6 E 0,0
20.01.2019 10:00:00 -2,4 -5,9 -2,5 7 4 11 6 ENE 0,0
20.01.2019 09:00:00 -4,4 -6,7 -5,1 7 4 14 8 E 0,0
20.01.2019 08:00:00 -4,6 -7,0 -5,3 7 4 14 8 ENE 0,0
20.01.2019 07:00:00 -4,1 -6,8 -4,7 7 4 14 8 E 0,0
20.01.2019 06:00:00 -4,1 -6,2 -4,9 7 4 14 8 ENE 0,0
20.01.2019 05:00:00 -5,2 -6,8 -6,8 7 4 14 8 E 0,0
20.01.2019 04:00:00 -5,1 -6,8 -5,7 4 2 11 6 E 0,0
20.01.2019 03:00:00 -2,9 -6,7 -3,4 7 4 11 6 E 0,0
20.01.2019 02:00:00 -2,8 -6,0 -3,3 7 4 18 10 ENE 0,0
20.01.2019 01:00:00 -2,9 -5,8 -3,5 7 4 11 6 E 0,0
20.01.2019 00:00:00 -1,7 -6,0 -2,1 7 4 14 8 E 0,0
19.01.2019 23:00:00 -1,4 -5,6 -1,8 7 4 14 8 E 0,0
19.01.2019 22:00:00 -1,1 -5,3 -1,6 7 4 14 8 E 0,0
19.01.2019 21:00:00 -1,4 -4,3 -1,9 7 4 11 6 E 0,0
19.01.2019 20:00:00 -1,2 -3,8 -1,8 7 4 11 6 E 0,0
19.01.2019 19:00:00 -0,4 -4,2 -0,9 11 6 18 10 ENE 0,0
19.01.2019 18:00:00 1,1 -4,9 0,6 11 6 18 10 E 0,0
19.01.2019 17:00:00 1,7 -4,6 1,0 7 4 14 8 E 0,0
19.01.2019 16:00:00 2,7 -4,8 2,0 11 6 22 12 ESE 0,0
19.01.2019 15:00:00 2,9 -4,6 2,2 14 8 25 14 SE 0,0
19.01.2019 14:00:00 2,4 -3,0 2,0 14 8 25 14 SE 0,0
19.01.2019 13:00:00 1,8 -3,2 1,4 14 8 25 14 SE 0,0
19.01.2019 12:00:00 0,9 -3,3 0,7 18 10 29 16 SE 0,0
19.01.2019 11:00:00 0,3 -3,3 0,2 18 10 29 16 ESE 0,0
19.01.2019 10:00:00 -0,8 -3,6 -0,8 11 6 18 10 ESE 0,0
19.01.2019 09:00:00 -1,6 -4,1 -1,9 14 8 22 12 ESE 0,0
19.01.2019 08:00:00 -1,9 -3,7 -2,1 11 6 18 10 ESE 0,0
19.01.2019 07:00:00 -1,5 -3,2 -1,8 11 6 18 10 SE 0,0
19.01.2019 06:00:00 -1,7 -3,1 -2,1 11 6 14 8 SE 0,0
19.01.2019 05:00:00 -1,8 -3,0 -2,2 7 4 14 8 SE 0,0
19.01.2019 04:00:00 -1,7 -2,8 -2,0 7 4 14 8 SE 0,0
19.01.2019 03:00:00 -1,8 -2,8 -2,2 7 4 11 6 ESE 0,0
19.01.2019 02:00:00 -1,5 -2,5 -2,0 7 4 11 6 SE 0,0
19.01.2019 01:00:00 -1,7 -2,6 -2,5 4 2 7 4 SE 0,0
19.01.2019 00:00:00 -1,5 -2,3 -1,8 4 2 7 4 SE 0,0
18.01.2019 23:00:00 -1,7 -2,4 -2,2 4 2 11 6 SE 0,0
18.01.2019 22:00:00 -2,9 -3,2 -3,5 4 2 7 4 ESE 0,0
18.01.2019 21:00:00 -2,1 -2,3 -2,0 4 2 4 2 E 0,0
18.01.2019 20:00:00 -2,1 -2,1 -1,8 4 2 11 6 SSE 0,0
18.01.2019 19:00:00 -2,1 -2,2 -1,8 4 2 7 4 SE 0,0
18.01.2019 18:00:00 -2,0 -2,1 -1,7 4 2 11 6 SSW 0,0
18.01.2019 17:00:00 -1,7 -1,8 -1,4 4 2 11 6 SE 0,0
18.01.2019 16:00:00 -1,6 -2,1 -1,1 7 4 11 6 SSE 0,0
18.01.2019 15:00:00 -1,0 -1,5 -0,6 4 2 11 6 S 0,0
18.01.2019 14:00:00 -0,9 -1,2 -0,3 7 4 11 6 SW 0,0
18.01.2019 13:00:00 -1,0 -1,4 -0,5 7 4 11 6 SW 0,0
18.01.2019 12:00:00 -0,6 -1,0 -0,2 7 4 11 6 S 0,0
18.01.2019 11:00:00 -0,2 -0,9 -0,6 4 2 11 6 SSW 0,0
18.01.2019 10:00:00 -1,0 -1,6 -1,0 4 2 7 4 SSW 0,0
18.01.2019 09:00:00 -2,9 -3,3 -4,7 4 2 7 4 S 0,0
18.01.2019 08:00:00 -3,0 -3,3 -4,6 4 2 4 2 S 0,0
18.01.2019 07:00:00 -2,0 -2,3 -4,2 4 2 7 4 S 0,0
18.01.2019 06:00:00 -2,4 -2,6 -4,3 4 2 7 4 SSW 0,0
18.01.2019 05:00:00 -2,2 -2,7 -3,9 4 2 7 4 WSW 0,0
18.01.2019 04:00:00 -1,8 -1,9 -3,2 0 0 7 4 N 0,0
18.01.2019 03:00:00 -1,0 -1,5 -2,7 4 2 11 6 WNW 0,0
18.01.2019 02:00:00 0,0 -0,6 -0,9 11 6 22 12 W 0,0
18.01.2019 01:00:00 0,4 -0,3 -0,6 11 6 22 12 W 0,0
18.01.2019 00:00:00 0,7 -0,3 -0,2 11 6 22 12 W 0,0
17.01.2019 23:00:00 0,5 -0,4 -0,2 14 8 22 12 W 0,0
17.01.2019 22:00:00 0,6 -0,6 -0,1 11 6 22 12 W 0,0
17.01.2019 21:00:00 1,1 0,0 0,7 11 6 22 12 W 0,0
17.01.2019 20:00:00 1,5 0,4 1,3 11 6 22 12 W 0,0
17.01.2019 19:00:00 1,8 0,9 1,7 11 6 32 18 W 0,0
17.01.2019 18:00:00 2,6 1,1 2,2 14 8 36 19 W 0,0
17.01.2019 17:00:00 2,3 0,8 1,5 11 6 25 14 W 0,0
17.01.2019 16:00:00 2,2 0,9 2,1 7 4 50 27 W 0,6
17.01.2019 15:00:00 3,9 2,6 4,1 11 6 22 12 W 0,0
17.01.2019 14:00:00 3,6 2,4 3,9 14 8 40 21 WNW 0,4
17.01.2019 13:00:00 3,7 2,4 4,0 14 8 29 16 W 0,2
17.01.2019 12:00:00 3,7 2,7 3,9 18 10 32 18 W 0,9
17.01.2019 11:00:00 4,2 2,9 4,2 18 10 29 16 WSW 1,8
17.01.2019 10:00:00 5,1 3,5 4,8 11 6 25 14 SW 0,0
17.01.2019 09:00:00 3,9 2,9 2,6 11 6 22 12 SW 0,0
17.01.2019 08:00:00 3,8 3,1 2,8 11 6 22 12 SW 0,0
17.01.2019 07:00:00 4,4 3,6 3,5 14 8 22 12 WSW 0,0
17.01.2019 06:00:00 5,0 4,0 4,5 14 8 22 12 WSW 0,0
17.01.2019 05:00:00 4,8 4,1 4,4 11 6 22 12 WSW 0,0
17.01.2019 04:00:00 4,6 3,8 4,2 11 6 14 8 SW 0,0
17.01.2019 03:00:00 5,0 4,2 4,7 11 6 29 16 WSW 0,0
17.01.2019 02:00:00 5,2 4,5 5,1 18 10 36 19 WSW 0,3
17.01.2019 01:00:00 5,0 3,9 4,9 22 12 40 21 SW 0,3
17.01.2019 00:00:00 5,3 3,1 5,1 25 14 43 23 SW 0,0
16.01.2019 23:00:00 5,9 2,1 5,6 22 12 40 21 SW 0,0
16.01.2019 22:00:00 5,8 2,0 5,6 18 10 43 23 SW 0,0
16.01.2019 21:00:00 5,9 1,6 5,6 25 14 40 21 SW 0,0
16.01.2019 20:00:00 5,9 1,7 5,5 18 10 36 19 SW 0,0
16.01.2019 19:00:00 5,8 1,8 5,5 14 8 29 16 SW 0,0
16.01.2019 18:00:00 5,9 1,6 5,3 18 10 29 16 SSW 0,0
16.01.2019 17:00:00 5,8 1,9 5,3 18 10 29 16 SSW 0,0
16.01.2019 16:00:00 6,1 1,5 6,0 18 10 40 21 SW 0,0
16.01.2019 15:00:00 6,1 1,5 6,2 22 12 40 21 SW 0,0
16.01.2019 14:00:00 6,4 1,9 6,4 18 10 47 25 SW 0,0
16.01.2019 13:00:00 6,4 2,0 6,6 25 14 47 25 SW 0,0
16.01.2019 12:00:00 6,4 2,3 6,7 22 12 43 23 SW 0,0
16.01.2019 11:00:00 6,3 2,3 6,2 22 12 40 21 SW 0,0
16.01.2019 10:00:00 6,2 2,3 6,0 22 12 40 21 SW 0,0
16.01.2019 09:00:00 6,3 2,6 6,0 18 10 36 19 SW 0,0
16.01.2019 08:00:00 6,4 3,0 6,0 18 10 32 18 SW 0,0
16.01.2019 07:00:00 6,4 3,3 6,0 18 10 32 18 SSW 0,0
16.01.2019 06:00:00 6,2 3,9 5,9 14 8 29 16 SW 0,0
16.01.2019 05:00:00 6,0 4,5 5,8 14 8 32 18 SW 0,0
16.01.2019 04:00:00 6,1 5,0 6,0 18 10 32 18 SW 0,0
16.01.2019 03:00:00 6,5 4,8 6,4 18 10 32 18 SW 0,0
16.01.2019 02:00:00 6,7 4,8 6,5 18 10 32 18 SW 0,0
16.01.2019 01:00:00 6,8 4,6 6,5 18 10 32 18 SW 0,0
16.01.2019 00:00:00 6,7 4,4 6,3 14 8 29 16 SW 0,0
15.01.2019 23:00:00 6,7 4,1 6,4 14 8 25 14 SW 0,0
15.01.2019 22:00:00 6,8 3,9 6,5 18 10 32 18 WSW 0,0
15.01.2019 21:00:00 6,9 3,7 6,6 18 10 32 18 WSW 0,0
15.01.2019 20:00:00 7,0 3,7 6,6 18 10 32 18 WSW 0,0
15.01.2019 19:00:00 7,0 3,7 6,6 18 10 32 18 WSW 0,0
15.01.2019 18:00:00 7,0 3,8 6,6 18 10 32 18 WSW 0,0
15.01.2019 17:00:00 7,0 3,6 6,6 14 8 32 18 WSW 0,0

tt = Température de l'air
td = dewpoint
tt 5cm = Température de l'air 5cm
ff = Vitesse du vent
fx = gusts
dd = Direction du vent
rr = Quantités de précipitations

stations d'obs. à proximité